createdAt,value
2019-05-26T00:00:43.464Z,14.39
2019-05-26T00:03:13.694Z,14.41
2019-05-26T00:05:43.091Z,14.47
2019-05-26T00:08:12.325Z,14.47
2019-05-26T00:10:41.593Z,14.47
2019-05-26T00:13:10.817Z,14.50
2019-05-26T00:15:39.992Z,14.42
2019-05-26T00:18:09.222Z,14.23
2019-05-26T00:20:38.410Z,14.20
2019-05-26T00:23:07.660Z,14.25
2019-05-26T00:25:36.864Z,14.18
2019-05-26T00:28:06.306Z,14.06
2019-05-26T00:30:35.500Z,13.93
2019-05-26T00:33:04.795Z,13.79
2019-05-26T00:35:34.010Z,13.81
2019-05-26T00:38:03.234Z,13.76
2019-05-26T00:40:32.461Z,13.66
2019-05-26T00:43:01.748Z,13.69
2019-05-26T00:45:31.127Z,13.68
2019-05-26T00:48:00.382Z,13.72
2019-05-26T00:50:29.597Z,13.67
2019-05-26T00:52:58.789Z,13.59
2019-05-26T00:55:28.090Z,13.64
2019-05-26T00:57:57.300Z,13.82
2019-05-26T01:00:38.088Z,13.81
2019-05-26T01:03:07.447Z,13.90
2019-05-26T01:05:36.610Z,13.83
2019-05-26T01:08:06.917Z,13.85
2019-05-26T01:10:36.402Z,13.85
2019-05-26T01:13:05.721Z,13.83
2019-05-26T01:15:35.977Z,13.76
2019-05-26T01:18:05.414Z,13.79
2019-05-26T01:20:34.617Z,13.60
2019-05-26T01:23:03.880Z,13.40
2019-05-26T01:25:33.164Z,13.44
2019-05-26T01:28:02.411Z,13.46
2019-05-26T01:30:35.140Z,13.37
2019-05-26T01:33:05.214Z,13.46
2019-05-26T01:35:35.138Z,13.37
2019-05-26T01:38:04.434Z,13.34
2019-05-26T01:40:37.416Z,13.39
2019-05-26T01:43:06.582Z,13.43
2019-05-26T01:45:35.712Z,13.56
2019-05-26T01:48:06.316Z,13.50
2019-05-26T01:50:35.659Z,13.54
2019-05-26T01:53:05.138Z,13.53
2019-05-26T01:55:34.381Z,13.56
2019-05-26T01:58:03.717Z,13.43
2019-05-26T02:00:32.925Z,13.50
2019-05-26T02:03:02.121Z,13.56
2019-05-26T02:05:32.411Z,13.62
2019-05-26T02:08:01.621Z,13.52
2019-05-26T02:10:30.834Z,13.46
2019-05-26T02:13:00.120Z,13.59
2019-05-26T02:15:29.355Z,13.60
2019-05-26T02:17:58.606Z,13.63
2019-05-26T02:20:27.868Z,13.63
2019-05-26T02:22:56.993Z,13.62
2019-05-26T02:25:26.250Z,13.58
2019-05-26T02:27:55.617Z,13.60
2019-05-26T02:30:24.794Z,13.60
2019-05-26T02:32:53.937Z,13.56
2019-05-26T02:35:23.266Z,13.55
2019-05-26T02:37:52.470Z,13.61
2019-05-26T02:40:21.872Z,13.69
2019-05-26T02:42:51.191Z,13.60
2019-05-26T02:45:22.634Z,13.53
2019-05-26T02:47:51.812Z,13.61
2019-05-26T02:50:20.951Z,13.58
2019-05-26T02:52:50.193Z,13.55
2019-05-26T02:55:19.638Z,13.50
2019-05-26T02:57:48.830Z,13.55
2019-05-26T03:00:24.487Z,13.58
2019-05-26T03:02:53.723Z,13.52
2019-05-26T03:05:23.208Z,13.48
2019-05-26T03:07:52.380Z,13.44
2019-05-26T03:10:21.625Z,13.49
2019-05-26T03:12:50.740Z,13.51
2019-05-26T03:15:20.118Z,13.47
2019-05-26T03:17:49.854Z,13.55
2019-05-26T03:20:19.109Z,13.48
2019-05-26T03:22:49.019Z,13.51
2019-05-26T03:25:18.302Z,13.57
2019-05-26T03:27:47.526Z,13.49
2019-05-26T03:30:16.750Z,13.49
2019-05-26T03:32:45.942Z,13.47
2019-05-26T03:35:15.179Z,13.51
2019-05-26T03:37:44.481Z,13.48
2019-05-26T03:40:13.932Z,13.51
2019-05-26T03:42:43.070Z,13.54
2019-05-26T03:45:13.756Z,13.60
2019-05-26T03:47:42.902Z,13.58
2019-05-26T03:50:12.077Z,13.52
2019-05-26T03:52:41.293Z,13.62
2019-05-26T03:55:10.648Z,13.61
2019-05-26T03:57:39.822Z,13.61
2019-05-26T04:00:09.004Z,13.63
2019-05-26T04:02:38.199Z,13.61
2019-05-26T04:05:07.992Z,13.60
2019-05-26T04:07:37.132Z,13.60
2019-05-26T04:10:06.605Z,13.65
2019-05-26T04:12:35.850Z,13.73
2019-05-26T04:15:05.370Z,13.68
2019-05-26T04:17:34.593Z,13.53
2019-05-26T04:20:04.021Z,13.66
2019-05-26T04:22:33.248Z,13.71
2019-05-26T04:25:02.539Z,13.84
2019-05-26T04:27:31.820Z,13.76
2019-05-26T04:30:00.915Z,13.66
2019-05-26T04:32:30.279Z,13.66
2019-05-26T04:34:59.420Z,13.77
2019-05-26T04:37:28.693Z,13.76
2019-05-26T04:39:57.890Z,13.74
2019-05-26T04:42:27.038Z,13.84
2019-05-26T04:44:56.215Z,13.89
2019-05-26T04:47:25.401Z,13.98
2019-05-26T04:49:54.621Z,13.97
2019-05-26T04:52:23.841Z,13.99
2019-05-26T04:54:53.827Z,14.04
2019-05-26T04:57:22.941Z,14.04
2019-05-26T04:59:52.143Z,14.06
2019-05-26T05:02:21.293Z,14.04
2019-05-26T05:04:50.434Z,14.12
2019-05-26T05:07:19.571Z,14.13
2019-05-26T05:09:48.797Z,14.13
2019-05-26T05:12:18.118Z,14.26
2019-05-26T05:14:47.350Z,14.21
2019-05-26T05:17:16.766Z,14.14
2019-05-26T05:19:45.920Z,14.20
2019-05-26T05:22:15.159Z,14.34
2019-05-26T05:24:44.473Z,14.40
2019-05-26T05:27:13.667Z,14.42
2019-05-26T05:29:42.928Z,14.40
2019-05-26T05:32:12.088Z,14.44
2019-05-26T05:34:41.234Z,14.38
2019-05-26T05:37:10.377Z,14.49
2019-05-26T05:39:39.509Z,14.64
2019-05-26T05:42:08.700Z,14.91
2019-05-26T05:44:37.836Z,14.93
2019-05-26T05:47:07.044Z,15.07
2019-05-26T05:49:36.348Z,14.78
2019-05-26T05:52:05.642Z,14.79
2019-05-26T05:54:34.807Z,14.99
2019-05-26T05:57:04.145Z,15.11
2019-05-26T05:59:33.399Z,15.12
2019-05-26T06:02:02.662Z,15.16
2019-05-26T06:04:31.853Z,15.18
2019-05-26T06:07:01.011Z,15.27
2019-05-26T06:09:30.454Z,15.49
2019-05-26T06:11:59.686Z,15.78
2019-05-26T06:14:28.931Z,15.94
2019-05-26T06:16:58.228Z,16.66
2019-05-26T06:19:27.419Z,16.54
2019-05-26T06:21:56.595Z,16.47
2019-05-26T06:24:25.793Z,16.24
2019-05-26T06:26:55.071Z,16.61
2019-05-26T06:29:24.251Z,16.75
2019-05-26T06:31:53.616Z,16.90
2019-05-26T06:34:22.911Z,17.07
2019-05-26T06:36:52.056Z,16.52
2019-05-26T06:39:21.222Z,16.56
2019-05-26T06:41:50.337Z,16.64
2019-05-26T06:44:19.486Z,16.66
2019-05-26T06:46:48.595Z,16.34
2019-05-26T06:49:17.726Z,16.93
2019-05-26T06:51:46.942Z,17.06
2019-05-26T06:54:16.119Z,17.16
2019-05-26T06:56:45.243Z,17.05
2019-05-26T06:59:14.574Z,17.06
2019-05-26T07:01:43.676Z,17.11
2019-05-26T07:04:12.839Z,16.99
2019-05-26T07:06:41.957Z,16.89
2019-05-26T07:09:11.127Z,17.04
2019-05-26T07:11:53.960Z,17.43
2019-05-26T07:14:11.113Z,16.88
2019-05-26T07:16:40.281Z,16.60
2019-05-26T07:19:09.452Z,16.56
2019-05-26T07:21:38.650Z,16.60
2019-05-26T07:24:07.795Z,16.56
2019-05-26T07:26:38.100Z,16.55
2019-05-26T07:29:07.246Z,16.59
2019-05-26T07:31:36.371Z,16.75
2019-05-26T07:34:05.520Z,16.60
2019-05-26T07:36:34.693Z,16.94
2019-05-26T07:39:04.891Z,17.70
2019-05-26T07:41:34.048Z,17.48
2019-05-26T07:44:03.240Z,17.17
2019-05-26T07:46:32.486Z,17.21
2019-05-26T07:49:01.637Z,17.18
2019-05-26T07:51:30.824Z,17.17
2019-05-26T07:54:00.081Z,17.07
2019-05-26T07:56:29.195Z,17.15
2019-05-26T07:58:58.346Z,16.83
2019-05-26T08:01:35.808Z,16.66
2019-05-26T08:03:59.343Z,16.78
2019-05-26T08:06:28.536Z,16.68
2019-05-26T08:08:57.742Z,16.67
2019-05-26T08:11:27.835Z,16.56
2019-05-26T08:13:57.079Z,16.70
2019-05-26T08:16:26.221Z,17.30
2019-05-26T08:18:55.419Z,17.60
2019-05-26T08:21:24.584Z,17.86
2019-05-26T08:23:53.777Z,18.02
2019-05-26T08:26:22.986Z,17.99
2019-05-26T08:28:53.820Z,17.56
2019-05-26T08:31:23.201Z,17.27
2019-05-26T08:33:52.361Z,17.10
2019-05-26T08:36:21.643Z,17.09
2019-05-26T08:38:50.982Z,17.38
2019-05-26T08:41:20.101Z,17.87
2019-05-26T08:43:49.261Z,17.84
2019-05-26T08:46:18.481Z,17.58
2019-05-26T08:48:47.631Z,17.36
2019-05-26T08:51:16.894Z,17.20
2019-05-26T08:53:46.116Z,17.21
2019-05-26T08:56:15.241Z,17.43
2019-05-26T08:58:44.366Z,17.25
2019-05-26T09:01:13.579Z,17.67
2019-05-26T09:03:42.782Z,17.73
2019-05-26T09:06:11.935Z,17.46
2019-05-26T09:08:41.080Z,17.64
2019-05-26T09:11:10.257Z,17.97
2019-05-26T09:13:39.367Z,18.58
2019-05-26T09:16:08.506Z,18.48
2019-05-26T09:18:37.600Z,18.40
2019-05-26T09:21:06.795Z,17.92
2019-05-26T09:23:35.928Z,17.75
2019-05-26T09:26:05.151Z,17.87
2019-05-26T09:28:34.314Z,18.19
2019-05-26T09:31:03.482Z,18.39
2019-05-26T09:33:32.754Z,18.37
2019-05-26T09:36:01.859Z,18.73
2019-05-26T09:38:31.102Z,18.93
2019-05-26T09:41:00.304Z,18.81
2019-05-26T09:43:29.597Z,19.23
2019-05-26T09:45:59.804Z,18.81
2019-05-26T09:48:30.408Z,18.93
2019-05-26T09:51:00.990Z,19.01
2019-05-26T09:53:31.180Z,19.29
2019-05-26T09:56:00.347Z,19.44
2019-05-26T09:58:29.518Z,20.04
2019-05-26T10:00:58.613Z,19.78
2019-05-26T10:03:27.786Z,20.19
2019-05-26T10:05:58.097Z,20.45
2019-05-26T10:08:27.375Z,20.37
2019-05-26T10:10:56.668Z,20.03
2019-05-26T10:13:31.838Z,19.93
2019-05-26T10:15:56.833Z,19.10
2019-05-26T10:18:27.059Z,19.46
2019-05-26T10:20:57.305Z,19.08
2019-05-26T10:23:26.609Z,19.05
2019-05-26T10:25:56.002Z,19.51
2019-05-26T10:28:25.302Z,19.59
2019-05-26T10:30:55.546Z,19.70
2019-05-26T10:33:24.710Z,19.48
2019-05-26T10:35:53.915Z,19.55
2019-05-26T10:38:23.047Z,20.00
2019-05-26T10:40:52.246Z,19.89
2019-05-26T10:43:21.570Z,20.05
2019-05-26T10:45:50.754Z,20.23
2019-05-26T10:48:20.029Z,20.12
2019-05-26T10:50:49.237Z,19.59
2019-05-26T10:53:18.492Z,19.73
2019-05-26T10:55:47.782Z,19.52
2019-05-26T10:58:16.933Z,19.90
2019-05-26T11:00:46.161Z,20.08
2019-05-26T11:03:15.299Z,19.85
2019-05-26T11:05:44.501Z,19.98
2019-05-26T11:08:13.784Z,20.40
2019-05-26T11:10:43.956Z,20.45
2019-05-26T11:13:13.177Z,20.22
2019-05-26T11:15:42.434Z,19.84
2019-05-26T11:18:11.736Z,19.85
2019-05-26T11:20:41.068Z,19.60
2019-05-26T11:23:10.256Z,19.85
2019-05-26T11:25:39.503Z,19.79
2019-05-26T11:28:08.760Z,19.46
2019-05-26T11:30:38.175Z,19.08
2019-05-26T11:33:07.355Z,19.07
2019-05-26T11:35:36.632Z,19.55
2019-05-26T11:38:05.891Z,19.70
2019-05-26T11:40:35.239Z,19.54
2019-05-26T11:43:16.400Z,19.33
2019-05-26T11:45:35.397Z,19.20
2019-05-26T11:48:04.882Z,19.17
2019-05-26T11:50:34.015Z,19.29
2019-05-26T11:53:03.242Z,19.62
2019-05-26T11:55:32.445Z,19.62
2019-05-26T11:58:01.641Z,19.75
2019-05-26T12:00:31.237Z,20.62
2019-05-26T12:03:00.652Z,20.89
2019-05-26T12:05:29.949Z,20.77
2019-05-26T12:07:59.175Z,20.34
2019-05-26T12:10:28.313Z,20.30
2019-05-26T12:12:57.538Z,20.51
2019-05-26T12:15:26.802Z,20.67
2019-05-26T12:17:55.968Z,20.21
2019-05-26T12:20:25.094Z,20.17
2019-05-26T12:22:54.299Z,20.07
2019-05-26T12:25:23.483Z,19.93
2019-05-26T12:27:52.660Z,19.87
2019-05-26T12:30:21.856Z,20.06
2019-05-26T12:32:51.098Z,19.87
2019-05-26T12:35:20.216Z,19.83
2019-05-26T12:37:49.429Z,20.07
2019-05-26T12:40:19.465Z,20.16
2019-05-26T12:42:48.650Z,20.16
2019-05-26T12:45:17.984Z,20.16
2019-05-26T12:47:47.279Z,20.17
2019-05-26T12:50:16.624Z,20.27
2019-05-26T12:52:45.958Z,20.22
2019-05-26T12:55:16.547Z,20.43
2019-05-26T12:57:45.786Z,20.26
2019-05-26T13:00:15.058Z,20.10
2019-05-26T13:02:44.313Z,19.97
2019-05-26T13:05:13.585Z,19.80
2019-05-26T13:07:42.767Z,19.70
2019-05-26T13:10:12.108Z,20.19
2019-05-26T13:12:41.275Z,20.58
2019-05-26T13:15:10.845Z,20.29
2019-05-26T13:17:40.100Z,20.34
2019-05-26T13:20:12.072Z,20.52
2019-05-26T13:22:41.302Z,20.65
2019-05-26T13:25:11.141Z,20.54
2019-05-26T13:27:40.244Z,20.71
2019-05-26T13:30:10.162Z,20.81
2019-05-26T13:32:39.324Z,20.59
2019-05-26T13:35:08.592Z,20.52
2019-05-26T13:37:37.701Z,20.85
2019-05-26T13:40:07.645Z,21.03
2019-05-26T13:42:37.294Z,20.74
2019-05-26T13:45:21.243Z,20.82
2019-05-26T13:47:37.988Z,20.87
2019-05-26T13:50:07.850Z,20.73
2019-05-26T13:52:36.986Z,20.77
2019-05-26T13:55:06.758Z,21.00
2019-05-26T13:57:36.021Z,20.94
2019-05-26T14:00:05.927Z,20.92
2019-05-26T14:02:36.466Z,20.87
2019-05-26T14:05:06.318Z,20.73
2019-05-26T14:07:35.490Z,20.91
2019-05-26T14:10:04.818Z,20.94
2019-05-26T14:12:33.961Z,20.99
2019-05-26T14:15:03.191Z,20.97
2019-05-26T14:17:33.381Z,20.79
2019-05-26T14:20:04.455Z,20.67
2019-05-26T14:22:33.698Z,20.76
2019-05-26T14:25:02.902Z,20.86
2019-05-26T14:27:32.067Z,20.67
2019-05-26T14:30:01.231Z,20.60
2019-05-26T14:32:30.390Z,20.48
2019-05-26T14:34:59.551Z,20.57
2019-05-26T14:37:28.623Z,20.50
2019-05-26T14:39:57.752Z,20.58
2019-05-26T14:42:26.959Z,20.36
2019-05-26T14:44:56.201Z,20.28
2019-05-26T14:47:25.307Z,20.38
2019-05-26T14:49:54.497Z,20.49
2019-05-26T14:52:23.674Z,20.45
2019-05-26T14:54:52.807Z,20.39
2019-05-26T14:57:21.935Z,20.45
2019-05-26T14:59:51.288Z,20.71
2019-05-26T15:02:20.435Z,20.80
2019-05-26T15:04:49.568Z,20.62
2019-05-26T15:07:18.759Z,20.68
2019-05-26T15:09:47.940Z,20.70
2019-05-26T15:12:17.055Z,20.69
2019-05-26T15:14:46.243Z,20.73
2019-05-26T15:17:15.436Z,20.75
2019-05-26T15:19:45.001Z,20.67
2019-05-26T15:22:15.089Z,20.59
2019-05-26T15:24:44.339Z,20.67
2019-05-26T15:27:13.557Z,20.73
2019-05-26T15:29:42.701Z,20.79
2019-05-26T15:32:11.956Z,20.84
2019-05-26T15:34:41.058Z,20.77
2019-05-26T15:37:10.246Z,20.77
2019-05-26T15:39:39.409Z,20.76
2019-05-26T15:42:08.619Z,20.72
2019-05-26T15:44:37.745Z,20.72
2019-05-26T15:47:06.962Z,20.65
2019-05-26T15:49:36.122Z,20.69
2019-05-26T15:52:05.230Z,20.76
2019-05-26T15:54:35.442Z,20.68
2019-05-26T15:57:04.615Z,20.75
2019-05-26T15:59:33.872Z,20.74
2019-05-26T16:02:03.073Z,20.66
2019-05-26T16:04:32.298Z,20.61
2019-05-26T16:07:01.407Z,20.63
2019-05-26T16:09:30.636Z,20.69
2019-05-26T16:12:00.011Z,20.65
2019-05-26T16:14:29.123Z,20.65
2019-05-26T16:16:58.346Z,20.66
2019-05-26T16:19:27.466Z,20.72
2019-05-26T16:21:57.862Z,20.68
2019-05-26T16:24:27.083Z,20.70
2019-05-26T16:26:56.325Z,20.67
2019-05-26T16:29:26.529Z,20.66
2019-05-26T16:31:56.001Z,20.65
2019-05-26T16:34:25.135Z,20.63
2019-05-26T16:36:54.307Z,20.59
2019-05-26T16:39:36.134Z,20.59
2019-05-26T16:41:54.586Z,20.61
2019-05-26T16:44:23.682Z,20.63
2019-05-26T16:46:56.438Z,20.63
2019-05-26T16:49:23.800Z,20.65
2019-05-26T16:51:52.977Z,20.67
2019-05-26T16:54:22.124Z,20.64
2019-05-26T16:56:51.278Z,20.65
2019-05-26T16:59:20.527Z,20.63
2019-05-26T17:01:49.770Z,20.64
2019-05-26T17:04:18.975Z,20.58
2019-05-26T17:06:48.177Z,20.57
2019-05-26T17:09:17.322Z,20.59
2019-05-26T17:11:46.603Z,20.58
2019-05-26T17:14:15.772Z,20.59
2019-05-26T17:16:44.910Z,20.59
2019-05-26T17:19:14.064Z,20.61
2019-05-26T17:34:40.813Z,20.55
2019-05-26T17:37:07.859Z,20.49
2019-05-26T17:39:35.165Z,20.48
2019-05-26T17:42:02.272Z,20.51
2019-05-26T17:44:30.642Z,20.51
2019-05-26T17:46:57.399Z,20.52
2019-05-26T17:49:24.045Z,20.51
2019-05-26T17:51:51.171Z,20.53
2019-05-26T17:54:18.326Z,20.48
2019-05-26T17:56:45.166Z,20.41
2019-05-26T17:59:11.928Z,20.39
2019-05-26T18:01:38.990Z,20.38
2019-05-26T18:04:05.804Z,20.35
2019-05-26T18:06:33.008Z,20.33
2019-05-26T18:08:59.899Z,20.29
2019-05-26T18:11:27.036Z,20.26
2019-05-26T18:13:53.992Z,20.24
2019-05-26T18:16:21.042Z,20.25
2019-05-26T18:18:47.886Z,20.21
2019-05-26T18:21:15.247Z,20.16
2019-05-26T18:23:42.111Z,20.13
2019-05-26T18:26:09.238Z,20.13
2019-05-26T18:28:36.936Z,20.13
2019-05-26T18:31:03.944Z,20.11
2019-05-26T18:33:31.470Z,20.07
2019-05-26T18:35:58.970Z,20.05
2019-05-26T18:38:26.018Z,20.03
2019-05-26T18:40:53.010Z,20.04
2019-05-26T18:43:20.029Z,20.02
2019-05-26T18:45:46.852Z,20.02
2019-05-26T18:48:14.831Z,20.01
2019-05-26T18:50:41.701Z,20.02
2019-05-26T18:53:08.745Z,19.96
2019-05-26T18:55:35.695Z,20.00
2019-05-26T18:58:03.112Z,20.02
2019-05-26T19:00:31.415Z,19.99
2019-05-26T19:02:58.339Z,19.92
2019-05-26T19:05:33.652Z,19.91
2019-05-26T19:07:54.017Z,19.89
2019-05-26T19:10:20.969Z,19.85
2019-05-26T19:12:48.280Z,19.85
2019-05-26T19:15:16.343Z,19.84
2019-05-26T19:17:43.117Z,19.82
2019-05-26T19:20:16.110Z,19.82
2019-05-26T19:22:38.952Z,19.78
2019-05-26T19:25:06.512Z,19.75
2019-05-26T19:27:33.216Z,19.75
2019-05-26T19:30:00.112Z,19.71
2019-05-26T19:32:27.359Z,19.64
2019-05-26T19:34:54.400Z,19.58
2019-05-26T19:37:21.462Z,19.56
2019-05-26T19:39:48.778Z,19.58
2019-05-26T19:42:15.948Z,19.55
2019-05-26T19:44:42.873Z,19.57
2019-05-26T19:47:09.722Z,19.55
2019-05-26T19:49:36.697Z,19.55
2019-05-26T19:52:03.600Z,19.54
2019-05-26T19:54:30.659Z,19.48
2019-05-26T19:56:58.101Z,19.45
2019-05-26T19:59:24.968Z,19.44
2019-05-26T20:01:52.005Z,19.40
2019-05-26T20:04:19.100Z,19.39
2019-05-26T20:06:45.744Z,19.35
2019-05-26T20:09:16.473Z,19.26
2019-05-26T20:11:43.616Z,19.23
2019-05-26T20:14:12.908Z,19.24
2019-05-26T20:16:39.835Z,19.21
2019-05-26T20:19:06.819Z,19.18
2019-05-26T20:21:34.120Z,19.16
2019-05-26T20:24:01.104Z,19.17
2019-05-26T20:26:28.168Z,19.06
2019-05-26T20:28:55.896Z,19.05
2019-05-26T20:31:23.040Z,19.02
2019-05-26T20:33:49.936Z,19.06
2019-05-26T20:36:16.977Z,19.04
2019-05-26T20:38:43.818Z,19.03
2019-05-26T20:41:11.123Z,19.00
2019-05-26T20:43:38.369Z,19.00
2019-05-26T20:46:05.316Z,18.99
2019-05-26T20:48:32.180Z,18.98
2019-05-26T20:50:58.828Z,19.00
2019-05-26T20:53:26.260Z,19.01
2019-05-26T20:55:53.541Z,18.96
2019-05-26T20:58:20.560Z,18.90
2019-05-26T21:00:47.817Z,18.91
2019-05-26T21:03:14.658Z,18.86
2019-05-26T21:05:41.970Z,18.87
2019-05-26T21:08:08.963Z,18.85
2019-05-26T21:10:36.208Z,18.83
2019-05-26T21:13:03.052Z,18.84
2019-05-26T21:15:30.159Z,18.76
2019-05-26T21:17:56.969Z,18.67
2019-05-26T21:20:24.127Z,18.64
2019-05-26T21:22:50.996Z,18.65
2019-05-26T21:25:19.018Z,18.61
2019-05-26T21:27:46.059Z,18.65
2019-05-26T21:30:13.210Z,18.64
2019-05-26T21:32:40.084Z,18.60
2019-05-26T21:35:07.306Z,18.63
2019-05-26T21:37:34.024Z,18.58
2019-05-26T21:40:00.993Z,18.59
2019-05-26T21:42:27.673Z,18.57
2019-05-26T21:44:54.504Z,18.48
2019-05-26T21:47:21.482Z,18.50
2019-05-26T21:49:48.372Z,18.54
2019-05-26T21:52:15.316Z,18.54
2019-05-26T21:54:42.219Z,18.46
2019-05-26T21:57:09.117Z,18.40
2019-05-26T21:59:35.932Z,18.44
2019-05-26T22:02:02.745Z,18.40
2019-05-26T22:04:29.836Z,18.39
2019-05-26T22:06:56.911Z,18.33
2019-05-26T22:09:24.164Z,18.30
2019-05-26T22:11:51.113Z,18.32
2019-05-26T22:14:18.028Z,18.33
2019-05-26T22:16:45.905Z,18.27
2019-05-26T22:19:12.930Z,18.28
2019-05-26T22:21:39.579Z,18.26
2019-05-26T22:24:06.573Z,18.19
2019-05-26T22:26:33.643Z,18.13
2019-05-26T22:29:00.626Z,18.18
2019-05-26T22:31:27.326Z,18.14
2019-05-26T22:33:54.278Z,18.11
2019-05-26T22:36:21.002Z,18.06
2019-05-26T22:38:47.896Z,18.04
2019-05-26T22:41:14.651Z,18.10
2019-05-26T22:43:41.206Z,18.03
2019-05-26T22:46:07.991Z,18.02
2019-05-26T22:48:35.065Z,18.02
2019-05-26T22:51:02.237Z,17.97
2019-05-26T22:53:29.369Z,18.02
2019-05-26T22:55:56.446Z,18.00
2019-05-26T22:58:23.258Z,17.92
2019-05-26T23:00:49.953Z,17.93
2019-05-26T23:03:16.694Z,17.90
2019-05-26T23:05:43.565Z,17.93
2019-05-26T23:08:10.289Z,17.94
2019-05-26T23:10:37.540Z,17.90
2019-05-26T23:13:04.547Z,17.86
2019-05-26T23:15:31.545Z,17.80
2019-05-26T23:17:58.364Z,17.75
2019-05-26T23:20:25.114Z,17.80
2019-05-26T23:22:52.254Z,17.75
2019-05-26T23:25:19.480Z,17.70
2019-05-26T23:27:46.406Z,17.65
2019-05-26T23:30:13.430Z,17.65
2019-05-26T23:32:40.181Z,17.62
2019-05-26T23:35:07.374Z,17.60
2019-05-26T23:37:34.187Z,17.65
2019-05-26T23:40:01.559Z,17.67
2019-05-26T23:42:28.382Z,17.63
2019-05-26T23:44:55.058Z,17.61
2019-05-26T23:47:22.099Z,17.54
2019-05-26T23:49:48.888Z,17.50
2019-05-26T23:52:19.210Z,17.39
2019-05-26T23:54:44.447Z,17.45
2019-05-26T23:57:11.390Z,17.42
2019-05-26T23:59:38.103Z,17.39
